« 趣味的航空路誌改訂情報 2020/7/16 thu | トップページ | 定点 富山空港 2020/7/20 mon »

2020/07/17

定点 富山空港 2020/7/17 fri

RJNT 162300Z 24003KT 9999 FEW010 BKN/// 22/20 Q1008

20200717_rjnt_00ja05an

GO TO キャンベーンが姦しいが、お出かけマインドは、下降中。

20200717_rjnt_01ja05an

ANA313 RJTT-RJNT JA05AN B737-781

RJNT 170000Z VRB01KT 9999 SCT009 BKN/// 23/20 Q1008

20200717_rjnt_02ja05an

ANA316 RJNT-RJTT JA05AN B737-781

RJNT 170100Z 32003KT 270V020 9999 FEW010 BKN020 BKN/// 25/20 Q1008

20200717_rjnt_03ja6502

JA6502↑ AS350B3 AKF

20200717_rjnt_04ja139t

JA139T↓ AW139 富山県警察

20200717_rjnt_05ja139t

RJNT 170200Z 36007KT 330V040 9999 FEW015 BKN020 BKN/// 26/21 Q1008

20200717_rjnt_06ja6502

JA6502↓

20200717_rjnt_07ja6512

JA6512↓ AS350B3 AKF

20200717_rjnt_08ja9965

違うピューマさん、来た

20200717_rjnt_09ja9965

JA9965↓ AS332L1 NNK

RJNT 170400Z 01009KT 9999 FEW015 BKN020 BKN/// 24/20 Q1008

20200717_rjnt_10ja6512

JA6512↑ お昼食べて、午後のお仕事

20200717_rjnt_11ja6502

JA6502↑ 

朝、ドクヘリさんはYMさんが稼働。9時半ごろに小矢部からJA17ACさんがお帰りになりました。お疲れ様でした。

|

« 趣味的航空路誌改訂情報 2020/7/16 thu | トップページ | 定点 富山空港 2020/7/20 mon »

富山空港」カテゴリの記事

コメント

コメントを書く



(ウェブ上には掲載しません)


コメントは記事投稿者が公開するまで表示されません。



« 趣味的航空路誌改訂情報 2020/7/16 thu | トップページ | 定点 富山空港 2020/7/20 mon »